createdAt,value
2023-11-12T00:00:41.332Z,85.55
2023-11-12T00:03:08.527Z,85.89
2023-11-12T00:05:35.886Z,84.91
2023-11-12T00:08:03.216Z,84.83
2023-11-12T00:10:30.246Z,84.74
2023-11-12T00:12:57.241Z,84.23
2023-11-12T00:15:24.283Z,84.07
2023-11-12T00:17:51.195Z,83.66
2023-11-12T00:20:19.285Z,83.67
2023-11-12T00:22:46.704Z,83.51
2023-11-12T00:25:15.154Z,82.63
2023-11-12T00:27:42.566Z,82.24
2023-11-12T00:30:10.718Z,81.23
2023-11-12T00:32:38.342Z,80.76
2023-11-12T00:35:06.918Z,80.54
2023-11-12T00:37:34.850Z,79.37
2023-11-12T00:40:01.760Z,79.78
2023-11-12T00:42:28.671Z,80.33
2023-11-12T00:44:57.132Z,80.54
2023-11-12T00:47:24.243Z,81.05
2023-11-12T00:49:51.332Z,81.55
2023-11-12T00:52:19.183Z,82.59
2023-11-12T00:54:46.342Z,82.40
2023-11-12T00:57:13.217Z,82.44
2023-11-12T00:59:40.343Z,82.26
2023-11-12T01:02:07.389Z,82.74
2023-11-12T01:04:34.363Z,83.17
2023-11-12T01:07:01.737Z,83.29
2023-11-12T01:09:29.847Z,83.28
2023-11-12T01:11:56.726Z,84.12
2023-11-12T01:14:24.409Z,84.53
2023-11-12T01:16:51.358Z,85.12
2023-11-12T01:19:18.309Z,85.28
2023-11-12T01:21:45.366Z,85.74
2023-11-12T01:24:12.483Z,86.05
2023-11-12T01:26:39.934Z,86.43
2023-11-12T01:29:07.134Z,87.14
2023-11-12T01:31:34.019Z,87.78
2023-11-12T01:34:01.629Z,88.32
2023-11-12T01:36:28.910Z,88.59
2023-11-12T01:38:56.012Z,89.59
2023-11-12T01:41:22.933Z,90.56
2023-11-12T01:43:50.209Z,90.98
2023-11-12T01:46:20.301Z,91.06
2023-11-12T01:48:49.111Z,91.04
2023-11-12T01:51:17.422Z,90.81
2023-11-12T01:53:44.624Z,90.78
2023-11-12T01:56:13.904Z,90.39
2023-11-12T01:58:41.769Z,90.06
2023-11-12T02:01:08.778Z,90.41
2023-11-12T02:03:37.536Z,90.14
2023-11-12T02:06:08.250Z,90.31
2023-11-12T02:08:37.260Z,90.23
2023-11-12T02:11:09.219Z,90.88
2023-11-12T02:13:43.593Z,91.24
2023-11-12T02:16:11.750Z,92.07
2023-11-12T02:18:38.837Z,92.69
2023-11-12T02:21:06.026Z,93.00
2023-11-12T02:23:38.048Z,92.99
2023-11-12T02:26:05.364Z,93.28
2023-11-12T02:28:32.261Z,93.61
2023-11-12T02:30:59.897Z,94.27
2023-11-12T02:33:29.213Z,94.67
2023-11-12T02:35:57.352Z,94.88
2023-11-12T02:38:25.392Z,95.50
2023-11-12T02:40:53.063Z,94.99
2023-11-12T02:43:21.273Z,95.02
2023-11-12T02:45:49.325Z,95.25
2023-11-12T02:48:16.439Z,94.98
2023-11-12T02:50:44.746Z,95.04
2023-11-12T02:53:13.592Z,94.67
2023-11-12T02:55:40.791Z,94.55
2023-11-12T02:58:07.756Z,94.39
2023-11-12T03:00:35.157Z,94.06
2023-11-12T03:03:03.315Z,93.57
2023-11-12T03:05:32.268Z,93.28
2023-11-12T03:07:59.831Z,92.89
2023-11-12T03:10:27.240Z,93.06
2023-11-12T03:12:55.538Z,92.74
2023-11-12T03:15:25.711Z,92.78
2023-11-12T03:17:53.116Z,92.78
2023-11-12T03:20:20.072Z,93.33
2023-11-12T03:22:48.132Z,93.52
2023-11-12T03:25:15.215Z,93.22
2023-11-12T03:27:42.458Z,93.23
2023-11-12T03:30:14.732Z,93.79
2023-11-12T03:32:41.886Z,93.77
2023-11-12T03:35:09.871Z,94.62
2023-11-12T03:37:36.842Z,94.37
2023-11-12T03:40:05.810Z,94.44
2023-11-12T03:42:33.334Z,94.49
2023-11-12T03:45:00.500Z,94.21
2023-11-12T03:47:27.533Z,94.11
2023-11-12T03:49:54.537Z,94.35
2023-11-12T03:52:21.596Z,94.27
2023-11-12T03:54:48.489Z,94.60
2023-11-12T03:57:15.988Z,94.83
2023-11-12T03:59:43.223Z,95.41
2023-11-12T04:02:10.385Z,95.64
2023-11-12T04:04:37.591Z,96.12
2023-11-12T04:07:04.973Z,96.23
2023-11-12T04:09:32.126Z,96.35
2023-11-12T04:11:59.270Z,96.43
2023-11-12T04:14:26.559Z,96.58
2023-11-12T04:16:53.438Z,96.78
2023-11-12T04:19:20.521Z,96.27
2023-11-12T04:21:49.046Z,96.57
2023-11-12T04:24:16.237Z,96.62
2023-11-12T04:26:43.538Z,96.60
2023-11-12T04:29:11.043Z,97.10
2023-11-12T04:31:38.152Z,97.20
2023-11-12T04:34:05.482Z,97.20
2023-11-12T04:36:36.999Z,97.40
2023-11-12T04:39:05.138Z,98.10
2023-11-12T04:41:32.165Z,98.08
2023-11-12T04:44:00.916Z,97.57
2023-11-12T04:46:29.312Z,98.41
2023-11-12T04:48:56.475Z,98.92
2023-11-12T04:51:23.753Z,99.64
2023-11-12T04:53:50.720Z,100.00
2023-11-12T04:56:17.757Z,100.00
2023-11-12T04:58:44.752Z,100.00
2023-11-12T05:01:11.609Z,100.00
2023-11-12T05:03:39.148Z,99.71
2023-11-12T05:06:06.888Z,99.84
2023-11-12T05:08:34.206Z,100.00
2023-11-12T05:11:01.236Z,100.00
2023-11-12T05:13:28.778Z,100.00
2023-11-12T05:15:55.893Z,100.00
2023-11-12T05:18:23.032Z,100.00
2023-11-12T05:20:50.379Z,100.00
2023-11-12T05:23:17.957Z,100.00
2023-11-12T05:25:46.700Z,100.00
2023-11-12T05:28:14.016Z,100.00
2023-11-12T05:30:41.109Z,100.00
2023-11-12T05:33:08.605Z,100.00
2023-11-12T05:35:35.607Z,100.00
2023-11-12T05:38:02.472Z,100.00
2023-11-12T05:40:30.829Z,100.00
2023-11-12T05:42:59.103Z,100.00
2023-11-12T05:45:26.148Z,100.00
2023-11-12T05:47:53.300Z,100.00
2023-11-12T05:50:20.509Z,100.00
2023-11-12T05:52:47.426Z,100.00
2023-11-12T05:55:15.139Z,100.00
2023-11-12T05:57:42.901Z,100.00
2023-11-12T06:00:13.909Z,100.00
2023-11-12T06:02:40.972Z,100.00
2023-11-12T06:05:08.770Z,100.00
2023-11-12T06:07:35.718Z,100.00
2023-11-12T06:10:03.076Z,100.00
2023-11-12T06:12:30.496Z,100.00
2023-11-12T06:15:11.536Z,100.00
2023-11-12T06:17:39.770Z,100.00
2023-11-12T06:20:08.372Z,100.00
2023-11-12T06:22:35.320Z,100.00
2023-11-12T06:25:02.425Z,99.88
2023-11-12T06:27:29.361Z,100.00
2023-11-12T06:29:56.287Z,99.93
2023-11-12T06:32:23.894Z,100.00
2023-11-12T06:34:50.808Z,99.87
2023-11-12T06:37:17.704Z,99.63
2023-11-12T06:39:45.252Z,99.67
2023-11-12T06:42:12.239Z,99.95
2023-11-12T06:44:40.272Z,99.56
2023-11-12T06:47:08.115Z,99.58
2023-11-12T06:49:35.054Z,99.44
2023-11-12T06:52:03.062Z,99.31
2023-11-12T06:54:30.220Z,99.11
2023-11-12T06:56:57.598Z,98.65
2023-11-12T06:59:24.610Z,98.28
2023-11-12T07:01:51.848Z,97.98
2023-11-12T07:04:19.266Z,97.86
2023-11-12T07:07:01.292Z,96.92
2023-11-12T07:09:35.447Z,96.08
2023-11-12T07:12:02.358Z,95.64
2023-11-12T07:14:29.221Z,94.60
2023-11-12T07:16:56.550Z,93.27
2023-11-12T07:19:24.139Z,93.43
2023-11-12T07:21:51.321Z,93.38
2023-11-12T07:24:19.042Z,93.01
2023-11-12T07:26:45.993Z,92.05
2023-11-12T07:29:16.391Z,90.41
2023-11-12T07:31:44.561Z,89.72
2023-11-12T07:34:11.587Z,89.77
2023-11-12T07:36:38.893Z,89.45
2023-11-12T07:39:06.266Z,89.48
2023-11-12T07:41:34.368Z,89.27
2023-11-12T07:44:01.569Z,88.63
2023-11-12T07:46:28.677Z,88.45
2023-11-12T07:48:55.688Z,88.30
2023-11-12T07:51:23.632Z,87.61
2023-11-12T07:53:52.475Z,86.72
2023-11-12T07:56:19.414Z,85.47
2023-11-12T07:58:47.489Z,84.75
2023-11-12T08:01:14.717Z,83.32
2023-11-12T08:03:41.697Z,82.65
2023-11-12T08:06:10.827Z,81.95
2023-11-12T08:08:38.483Z,80.44
2023-11-12T08:11:05.510Z,80.53
2023-11-12T08:13:32.441Z,80.90
2023-11-12T08:15:59.701Z,79.86
2023-11-12T08:18:27.290Z,78.33
2023-11-12T08:20:56.338Z,76.15
2023-11-12T08:23:23.483Z,75.96
2023-11-12T08:25:50.590Z,76.00
2023-11-12T08:28:22.758Z,73.06
2023-11-12T08:30:50.273Z,71.45
2023-11-12T08:33:17.252Z,68.64
2023-11-12T08:35:44.314Z,70.36
2023-11-12T08:38:11.505Z,68.03
2023-11-12T08:40:43.155Z,68.09
2023-11-12T08:43:14.514Z,65.10
2023-11-12T08:45:41.488Z,64.64
2023-11-12T08:48:08.544Z,64.36
2023-11-12T08:50:35.583Z,64.40
2023-11-12T08:53:03.313Z,62.25
2023-11-12T08:55:30.484Z,61.34
2023-11-12T08:57:57.656Z,62.13
2023-11-12T09:00:24.992Z,62.10
2023-11-12T09:02:52.607Z,60.97
2023-11-12T09:05:20.182Z,57.45
2023-11-12T09:07:48.168Z,57.22
2023-11-12T09:10:15.678Z,56.94
2023-11-12T09:12:42.552Z,58.71
2023-11-12T09:15:11.300Z,57.81
2023-11-12T09:17:38.801Z,56.35
2023-11-12T09:20:07.280Z,57.32
2023-11-12T09:22:34.845Z,55.92
2023-11-12T09:25:09.487Z,56.91
2023-11-12T09:27:40.165Z,56.19
2023-11-12T09:30:09.924Z,56.83
2023-11-12T09:32:40.253Z,56.76
2023-11-12T09:35:09.841Z,57.53
2023-11-12T09:37:36.940Z,55.27
2023-11-12T09:40:09.331Z,53.90
2023-11-12T09:42:39.932Z,54.53
2023-11-12T09:45:09.426Z,55.33
2023-11-12T09:47:52.829Z,53.49
2023-11-12T09:50:22.051Z,53.06
2023-11-12T09:52:51.005Z,52.16
2023-11-12T09:55:19.439Z,55.04
2023-11-12T09:57:47.493Z,53.86
2023-11-12T10:00:15.428Z,52.96
2023-11-12T10:02:42.382Z,52.75
2023-11-12T10:05:12.761Z,54.02
2023-11-12T10:07:40.004Z,52.58
2023-11-12T10:10:28.879Z,53.46
2023-11-12T10:12:56.608Z,52.85
2023-11-12T10:15:27.300Z,54.18
2023-11-12T10:17:58.494Z,53.87
2023-11-12T10:20:29.248Z,53.90
2023-11-12T10:22:56.423Z,52.96
2023-11-12T10:25:44.433Z,52.98
2023-11-12T10:28:12.980Z,54.57
2023-11-12T10:30:41.173Z,52.31
2023-11-12T10:33:21.993Z,52.41
2023-11-12T10:35:49.000Z,52.73
2023-11-12T10:38:19.851Z,55.21
2023-11-12T10:41:04.783Z,52.80
2023-11-12T10:43:32.520Z,52.53
2023-11-12T10:46:02.013Z,52.90
2023-11-12T10:48:36.854Z,51.76
2023-11-12T10:51:08.475Z,51.79
2023-11-12T10:53:39.031Z,53.73
2023-11-12T10:56:11.658Z,52.95
2023-11-12T10:58:39.045Z,51.85
2023-11-12T11:01:08.903Z,50.35
2023-11-12T11:03:36.315Z,50.93
2023-11-12T11:06:05.181Z,51.02
2023-11-12T11:08:32.911Z,52.22
2023-11-12T11:11:02.152Z,52.39
2023-11-12T11:13:29.640Z,53.13
2023-11-12T11:15:58.290Z,51.45
2023-11-12T11:18:34.508Z,51.52
2023-11-12T11:21:04.337Z,49.45
2023-11-12T11:23:43.795Z,49.72
2023-11-12T11:26:40.867Z,49.36
2023-11-12T11:29:17.141Z,49.47
2023-11-12T11:31:56.266Z,49.93
2023-11-12T11:34:40.673Z,48.47
2023-11-12T11:37:09.130Z,48.88
2023-11-12T11:39:37.016Z,47.98
2023-11-12T11:42:08.259Z,48.88
2023-11-12T11:44:47.340Z,48.53
2023-11-12T11:47:17.649Z,49.79
2023-11-12T11:50:00.329Z,48.76
2023-11-12T11:52:29.268Z,46.90
2023-11-12T11:55:09.921Z,47.25
2023-11-12T11:57:47.894Z,49.80
2023-11-12T12:00:18.148Z,46.42
2023-11-12T12:02:46.885Z,46.16
2023-11-12T12:05:16.807Z,48.47
2023-11-12T12:07:47.525Z,48.62
2023-11-12T12:10:28.331Z,46.86
2023-11-12T12:12:55.892Z,46.26
2023-11-12T12:15:23.046Z,46.24
2023-11-12T12:17:50.084Z,45.29
2023-11-12T12:20:17.463Z,46.85
2023-11-12T12:22:44.688Z,47.31
2023-11-12T12:25:12.114Z,47.57
2023-11-12T12:27:39.302Z,45.66
2023-11-12T12:30:09.438Z,47.06
2023-11-12T12:32:39.148Z,46.10
2023-11-12T12:35:08.171Z,45.68
2023-11-12T12:37:37.011Z,47.99
2023-11-12T12:40:18.701Z,46.51
2023-11-12T12:42:45.863Z,46.74
2023-11-12T12:45:20.609Z,47.47
2023-11-12T12:47:47.640Z,46.39
2023-11-12T12:50:27.553Z,45.37
2023-11-12T12:53:15.185Z,46.45
2023-11-12T12:55:45.289Z,46.87
2023-11-12T12:58:13.079Z,45.36
2023-11-12T13:00:42.401Z,45.33
2023-11-12T13:03:23.011Z,45.62
2023-11-12T13:05:51.507Z,44.07
2023-11-12T13:08:20.841Z,45.49
2023-11-12T13:10:50.014Z,46.93
2023-11-12T13:13:20.538Z,47.40
2023-11-12T13:15:51.038Z,48.46
2023-11-12T13:18:19.335Z,49.94
2023-11-12T13:20:47.019Z,48.49
2023-11-12T13:23:14.168Z,49.01
2023-11-12T13:25:43.487Z,47.92
2023-11-12T13:28:13.350Z,49.20
2023-11-12T13:30:40.969Z,50.60
2023-11-12T13:33:09.216Z,50.00
2023-11-12T13:35:36.541Z,50.34
2023-11-12T13:38:03.777Z,49.27
2023-11-12T13:40:31.994Z,48.84
2023-11-12T13:42:59.046Z,48.51
2023-11-12T13:45:26.594Z,49.20
2023-11-12T13:47:55.822Z,48.97
2023-11-12T13:50:26.372Z,48.10
2023-11-12T13:53:00.161Z,49.36
2023-11-12T13:55:30.633Z,48.47
2023-11-12T13:58:01.480Z,49.19
2023-11-12T14:00:32.096Z,50.89
2023-11-12T14:03:02.554Z,50.16
2023-11-12T14:05:29.686Z,49.89
2023-11-12T14:07:57.710Z,49.83
2023-11-12T14:10:26.556Z,49.65
2023-11-12T14:12:54.268Z,49.28
2023-11-12T14:15:23.685Z,49.47
2023-11-12T14:17:50.945Z,50.55
2023-11-12T14:20:23.883Z,50.44
2023-11-12T14:22:52.498Z,50.95
2023-11-12T14:25:22.999Z,50.57
2023-11-12T14:27:51.143Z,51.26
2023-11-12T14:30:20.209Z,51.45
2023-11-12T14:32:47.755Z,52.21
2023-11-12T14:35:17.697Z,52.56
2023-11-12T14:37:45.546Z,53.65
2023-11-12T14:40:16.356Z,53.77
2023-11-12T14:42:43.751Z,54.25
2023-11-12T14:45:21.762Z,54.89
2023-11-12T14:47:56.151Z,55.59
2023-11-12T14:50:23.358Z,55.24
2023-11-12T14:52:52.381Z,56.45
2023-11-12T14:55:24.896Z,57.10
2023-11-12T14:57:56.633Z,58.46
2023-11-12T15:00:29.949Z,59.91
2023-11-12T15:03:01.921Z,61.23
2023-11-12T15:05:29.942Z,61.03
2023-11-12T15:07:57.192Z,61.68
2023-11-12T15:10:24.670Z,63.29
2023-11-12T15:12:52.446Z,61.92
2023-11-12T15:15:21.199Z,61.53
2023-11-12T15:17:49.040Z,62.12
2023-11-12T15:20:16.090Z,62.26
2023-11-12T15:22:45.605Z,63.08
2023-11-12T15:25:16.526Z,63.10
2023-11-12T15:27:47.657Z,63.07
2023-11-12T15:30:15.240Z,63.78
2023-11-12T15:32:46.591Z,66.22
2023-11-12T15:35:15.360Z,68.25
2023-11-12T15:37:42.801Z,71.17
2023-11-12T15:40:22.153Z,69.58
2023-11-12T15:42:51.283Z,68.77
2023-11-12T15:45:20.425Z,68.43
2023-11-12T15:47:48.733Z,68.92
2023-11-12T15:50:18.078Z,69.09
2023-11-12T15:52:46.105Z,69.81
2023-11-12T15:55:14.238Z,69.76
2023-11-12T15:57:42.844Z,69.91
2023-11-12T16:00:15.783Z,74.06
2023-11-12T16:02:44.387Z,75.76
2023-11-12T16:05:12.368Z,75.78
2023-11-12T16:07:41.920Z,75.43
2023-11-12T16:10:12.381Z,75.30
2023-11-12T16:12:40.224Z,75.24
2023-11-12T16:15:13.609Z,75.21
2023-11-12T16:17:42.013Z,76.64
2023-11-12T16:20:14.086Z,76.13
2023-11-12T16:22:41.503Z,76.07
2023-11-12T16:25:11.877Z,76.42
2023-11-12T16:27:42.148Z,76.14
2023-11-12T16:30:10.146Z,77.52
2023-11-12T16:32:39.824Z,79.13
2023-11-12T16:35:07.731Z,80.27
2023-11-12T16:37:34.802Z,81.34
2023-11-12T16:40:02.424Z,82.24
2023-11-12T16:42:29.972Z,82.63
2023-11-12T16:44:58.096Z,82.53
2023-11-12T16:47:25.309Z,83.46
2023-11-12T16:49:55.200Z,84.20
2023-11-12T16:52:22.293Z,84.22
2023-11-12T16:54:49.200Z,84.69
2023-11-12T16:57:16.128Z,85.27
2023-11-12T16:59:43.647Z,85.93
2023-11-12T17:02:12.379Z,86.42
2023-11-12T17:04:40.021Z,86.72
2023-11-12T17:07:12.589Z,86.66
2023-11-12T17:09:42.382Z,86.34
2023-11-12T17:12:09.429Z,86.77
2023-11-12T17:14:37.296Z,86.61
2023-11-12T17:17:04.527Z,87.03
2023-11-12T17:19:31.905Z,87.70
2023-11-12T17:21:59.420Z,87.83
2023-11-12T17:24:26.282Z,87.80
2023-11-12T17:26:53.394Z,87.58
2023-11-12T17:29:22.554Z,87.36
2023-11-12T17:31:51.915Z,87.59
2023-11-12T17:34:20.342Z,88.22
2023-11-12T17:36:48.168Z,88.17
2023-11-12T17:39:17.612Z,88.01
2023-11-12T17:41:48.998Z,88.24
2023-11-12T17:44:16.929Z,88.17
2023-11-12T17:46:46.373Z,88.52
2023-11-12T17:49:14.279Z,88.93
2023-11-12T17:51:42.871Z,89.00
2023-11-12T17:54:10.099Z,88.97
2023-11-12T17:56:37.491Z,88.65
2023-11-12T17:59:04.657Z,88.73
2023-11-12T18:01:31.637Z,88.06
2023-11-12T18:04:00.857Z,87.66
2023-11-12T18:06:28.383Z,87.47
2023-11-12T18:08:57.055Z,86.66
2023-11-12T18:11:24.257Z,86.86
2023-11-12T18:13:51.607Z,87.18
2023-11-12T18:16:21.524Z,87.54
2023-11-12T18:18:48.437Z,87.46
2023-11-12T18:21:16.848Z,87.38
2023-11-12T18:23:44.378Z,87.17
2023-11-12T18:26:11.399Z,87.38
2023-11-12T18:28:38.992Z,88.31
2023-11-12T18:31:07.076Z,87.96
2023-11-12T18:33:34.518Z,88.15
2023-11-12T18:36:01.505Z,88.53
2023-11-12T18:38:28.969Z,88.40
2023-11-12T18:40:56.203Z,88.95
2023-11-12T18:43:23.893Z,87.73
2023-11-12T18:45:54.934Z,87.89
2023-11-12T18:48:22.388Z,88.16
2023-11-12T18:50:52.061Z,88.67
2023-11-12T18:53:19.792Z,88.55
2023-11-12T18:55:46.809Z,88.73
2023-11-12T18:58:18.103Z,88.89
2023-11-12T19:00:46.017Z,88.30
2023-11-12T19:03:13.148Z,87.73
2023-11-12T19:05:40.202Z,89.50
2023-11-12T19:08:10.754Z,90.63
2023-11-12T19:10:38.735Z,90.24
2023-11-12T19:13:06.041Z,90.12
2023-11-12T19:15:33.062Z,89.96
2023-11-12T19:18:00.429Z,89.93
2023-11-12T19:20:27.720Z,89.97
2023-11-12T19:22:55.125Z,90.29
2023-11-12T19:25:22.273Z,89.56
2023-11-12T19:27:49.334Z,89.35
2023-11-12T19:30:17.306Z,89.24
2023-11-12T19:32:46.153Z,89.29
2023-11-12T19:35:17.116Z,89.65
2023-11-12T19:37:45.659Z,90.43
2023-11-12T19:40:18.290Z,91.01
2023-11-12T19:42:48.674Z,91.16
2023-11-12T19:45:17.921Z,90.93
2023-11-12T19:47:44.901Z,90.82
2023-11-12T19:50:12.925Z,90.17
2023-11-12T19:52:40.262Z,90.60
2023-11-12T19:55:12.893Z,90.37
2023-11-12T19:57:41.682Z,90.10
2023-11-12T20:00:12.129Z,90.34
2023-11-12T20:02:40.108Z,89.90
2023-11-12T20:05:08.169Z,89.46
2023-11-12T20:07:35.149Z,88.99
2023-11-12T20:10:04.037Z,88.22
2023-11-12T20:12:31.182Z,87.31
2023-11-12T20:14:58.163Z,86.94
2023-11-12T20:17:25.041Z,86.69
2023-11-12T20:19:52.116Z,86.19
2023-11-12T20:22:19.381Z,85.53
2023-11-12T20:24:47.373Z,85.07
2023-11-12T20:27:16.640Z,84.89
2023-11-12T20:29:44.917Z,84.76
2023-11-12T20:32:16.710Z,84.56
2023-11-12T20:34:46.970Z,84.49
2023-11-12T20:37:15.037Z,84.76
2023-11-12T20:39:42.259Z,84.80
2023-11-12T20:42:10.776Z,84.38
2023-11-12T20:44:40.934Z,84.37
2023-11-12T20:47:09.161Z,84.29
2023-11-12T20:49:36.287Z,84.00
2023-11-12T20:52:03.551Z,84.22
2023-11-12T20:54:30.535Z,84.13
2023-11-12T20:56:57.466Z,84.05
2023-11-12T20:59:28.220Z,84.14
2023-11-12T21:01:55.836Z,84.36
2023-11-12T21:04:22.973Z,84.70
2023-11-12T21:06:49.985Z,84.74
2023-11-12T21:09:16.960Z,84.96
2023-11-12T21:11:48.467Z,84.99
2023-11-12T21:14:16.512Z,85.09
2023-11-12T21:16:44.659Z,85.13
2023-11-12T21:19:11.892Z,85.41
2023-11-12T21:21:41.811Z,85.35
2023-11-12T21:24:10.507Z,85.21
2023-11-12T21:26:38.475Z,85.08
2023-11-12T21:29:05.592Z,85.11
2023-11-12T21:31:32.667Z,85.25
2023-11-12T21:33:59.884Z,85.23
2023-11-12T21:36:27.649Z,85.30
2023-11-12T21:38:54.531Z,85.18
2023-11-12T21:41:21.482Z,85.00
2023-11-12T21:43:48.614Z,85.01
2023-11-12T21:46:17.147Z,84.97
2023-11-12T21:48:44.460Z,85.24
2023-11-12T21:51:11.643Z,85.23
2023-11-12T21:53:39.144Z,85.45
2023-11-12T21:56:08.919Z,85.49
2023-11-12T21:58:36.660Z,85.69
2023-11-12T22:01:03.928Z,85.80
2023-11-12T22:03:31.342Z,85.60
2023-11-12T22:05:58.277Z,85.64
2023-11-12T22:08:25.127Z,85.92
2023-11-12T22:10:52.142Z,85.76
2023-11-12T22:13:20.059Z,85.92
2023-11-12T22:15:49.207Z,85.73
2023-11-12T22:18:16.271Z,85.72
2023-11-12T22:20:43.456Z,85.56
2023-11-12T22:23:12.383Z,85.26
2023-11-12T22:25:40.367Z,85.17
2023-11-12T22:28:07.926Z,85.42
2023-11-12T22:30:34.964Z,85.05
2023-11-12T22:33:01.913Z,85.29
2023-11-12T22:35:29.052Z,85.18
2023-11-12T22:37:56.283Z,85.29
2023-11-12T22:40:24.818Z,85.41
2023-11-12T22:42:53.708Z,86.03
2023-11-12T22:45:21.100Z,86.06
2023-11-12T22:47:48.434Z,85.67
2023-11-12T22:50:18.589Z,85.35
2023-11-12T22:52:45.839Z,84.96
2023-11-12T22:55:13.479Z,84.44
2023-11-12T22:57:41.507Z,84.38
2023-11-12T23:00:42.239Z,84.25
2023-11-12T23:03:12.175Z,84.51
2023-11-12T23:05:39.401Z,83.92
2023-11-12T23:08:08.915Z,83.95
2023-11-12T23:10:36.761Z,83.41
2023-11-12T23:13:04.688Z,82.87
2023-11-12T23:15:34.757Z,82.71
2023-11-12T23:18:02.153Z,82.20
2023-11-12T23:20:29.750Z,81.73
2023-11-12T23:22:56.802Z,80.90
2023-11-12T23:25:24.016Z,80.36
2023-11-12T23:27:50.994Z,79.93
2023-11-12T23:30:18.647Z,79.84
2023-11-12T23:32:46.156Z,79.01
2023-11-12T23:35:13.221Z,79.06
2023-11-12T23:37:40.133Z,78.53
2023-11-12T23:40:08.603Z,78.42
2023-11-12T23:42:35.720Z,78.38
2023-11-12T23:45:02.966Z,78.19
2023-11-12T23:47:30.099Z,78.75
2023-11-12T23:49:57.031Z,78.12
2023-11-12T23:52:24.329Z,78.18
2023-11-12T23:54:51.283Z,78.17
2023-11-12T23:57:18.506Z,78.03
2023-11-12T23:59:46.127Z,78.15
